sensor_id;sensor_type;location;lat;lon;timestamp;temperature;humidity
44886;DHT22;36669;51.428;21.162;2024-02-15T00:02:26;4.70;99.90
44886;DHT22;36669;51.428;21.162;2024-02-15T00:04:52;4.70;99.90
44886;DHT22;36669;51.428;21.162;2024-02-15T00:07:18;4.70;99.90
44886;DHT22;36669;51.428;21.162;2024-02-15T00:09:50;4.80;99.90
44886;DHT22;36669;51.428;21.162;2024-02-15T00:12:16;4.80;99.90
44886;DHT22;36669;51.428;21.162;2024-02-15T00:14:43;4.80;99.90
44886;DHT22;36669;51.428;21.162;2024-02-15T00:17:09;4.80;99.90
44886;DHT22;36669;51.428;21.162;2024-02-15T00:19:35;4.70;99.90
44886;DHT22;36669;51.428;21.162;2024-02-15T00:22:04;4.70;99.90
44886;DHT22;36669;51.428;21.162;2024-02-15T00:24:32;4.80;99.90
44886;DHT22;36669;51.428;21.162;2024-02-15T00:26:59;4.80;99.90
44886;DHT22;36669;51.428;21.162;2024-02-15T00:29:26;4.80;99.90
44886;DHT22;36669;51.428;21.162;2024-02-15T00:31:55;4.80;99.90
44886;DHT22;36669;51.428;21.162;2024-02-15T00:34:20;4.80;99.90
44886;DHT22;36669;51.428;21.162;2024-02-15T00:36:47;4.80;99.90
44886;DHT22;36669;51.428;21.162;2024-02-15T00:39:17;4.80;99.90
44886;DHT22;36669;51.428;21.162;2024-02-15T00:41:44;4.70;99.90
44886;DHT22;36669;51.428;21.162;2024-02-15T00:44:10;4.70;99.90
44886;DHT22;36669;51.428;21.162;2024-02-15T00:46:37;4.70;99.90
44886;DHT22;36669;51.428;21.162;2024-02-15T00:49:05;4.70;99.90
44886;DHT22;36669;51.428;21.162;2024-02-15T00:51:36;4.80;99.90
44886;DHT22;36669;51.428;21.162;2024-02-15T00:54:05;4.70;99.90
44886;DHT22;36669;51.428;21.162;2024-02-15T00:56:31;4.70;99.90
44886;DHT22;36669;51.428;21.162;2024-02-15T00:59:00;4.60;99.90
44886;DHT22;36669;51.428;21.162;2024-02-15T01:01:30;4.70;99.90
44886;DHT22;36669;51.428;21.162;2024-02-15T01:03:57;4.70;99.90
44886;DHT22;36669;51.428;21.162;2024-02-15T01:06:25;4.60;99.90
44886;DHT22;36669;51.428;21.162;2024-02-15T01:08:52;4.70;99.90
44886;DHT22;36669;51.428;21.162;2024-02-15T01:11:19;4.60;99.90
44886;DHT22;36669;51.428;21.162;2024-02-15T01:13:46;4.60;99.90
44886;DHT22;36669;51.428;21.162;2024-02-15T01:16:12;4.60;99.90
44886;DHT22;36669;51.428;21.162;2024-02-15T01:18:38;4.60;99.90
44886;DHT22;36669;51.428;21.162;2024-02-15T01:21:04;4.70;99.90
44886;DHT22;36669;51.428;21.162;2024-02-15T01:23:32;4.60;99.90
44886;DHT22;36669;51.428;21.162;2024-02-15T01:25:57;4.50;99.90
44886;DHT22;36669;51.428;21.162;2024-02-15T01:28:26;4.50;99.90
44886;DHT22;36669;51.428;21.162;2024-02-15T01:30:51;4.60;99.90
44886;DHT22;36669;51.428;21.162;2024-02-15T01:33:19;4.50;99.90
44886;DHT22;36669;51.428;21.162;2024-02-15T01:35:46;4.50;99.90
44886;DHT22;36669;51.428;21.162;2024-02-15T01:38:12;4.50;99.90
44886;DHT22;36669;51.428;21.162;2024-02-15T01:40:40;4.50;99.90
44886;DHT22;36669;51.428;21.162;2024-02-15T01:43:08;4.50;99.90
44886;DHT22;36669;51.428;21.162;2024-02-15T01:45:34;4.50;99.90
44886;DHT22;36669;51.428;21.162;2024-02-15T01:48:03;4.50;99.90
44886;DHT22;36669;51.428;21.162;2024-02-15T01:50:29;4.40;99.90
44886;DHT22;36669;51.428;21.162;2024-02-15T01:53:03;4.40;99.90
44886;DHT22;36669;51.428;21.162;2024-02-15T01:55:38;4.40;99.90
44886;DHT22;36669;51.428;21.162;2024-02-15T01:58:06;4.50;99.90
44886;DHT22;36669;51.428;21.162;2024-02-15T02:00:34;4.40;99.90
44886;DHT22;36669;51.428;21.162;2024-02-15T02:03:02;4.40;99.90
44886;DHT22;36669;51.428;21.162;2024-02-15T02:05:29;4.40;99.90
44886;DHT22;36669;51.428;21.162;2024-02-15T02:07:56;4.40;99.90
44886;DHT22;36669;51.428;21.162;2024-02-15T02:10:26;4.30;99.90
44886;DHT22;36669;51.428;21.162;2024-02-15T02:13:02;4.30;99.90
44886;DHT22;36669;51.428;21.162;2024-02-15T02:15:28;4.40;99.90
44886;DHT22;36669;51.428;21.162;2024-02-15T02:17:57;4.30;99.90
44886;DHT22;36669;51.428;21.162;2024-02-15T02:20:27;4.30;99.90
44886;DHT22;36669;51.428;21.162;2024-02-15T02:23:00;4.30;99.90
44886;DHT22;36669;51.428;21.162;2024-02-15T02:25:29;4.30;99.90
44886;DHT22;36669;51.428;21.162;2024-02-15T02:27:56;4.30;99.90
44886;DHT22;36669;51.428;21.162;2024-02-15T02:30:23;4.30;99.90
44886;DHT22;36669;51.428;21.162;2024-02-15T02:32:50;4.30;99.90
44886;DHT22;36669;51.428;21.162;2024-02-15T02:35:16;4.30;99.90
44886;DHT22;36669;51.428;21.162;2024-02-15T02:37:42;4.20;99.90
44886;DHT22;36669;51.428;21.162;2024-02-15T02:40:11;4.30;99.90
44886;DHT22;36669;51.428;21.162;2024-02-15T02:42:57;4.30;99.90
44886;DHT22;36669;51.428;21.162;2024-02-15T02:45:26;4.30;99.90
44886;DHT22;36669;51.428;21.162;2024-02-15T02:47:53;4.30;99.90
44886;DHT22;36669;51.428;21.162;2024-02-15T02:50:21;4.30;99.90
44886;DHT22;36669;51.428;21.162;2024-02-15T02:52:49;4.30;99.90
44886;DHT22;36669;51.428;21.162;2024-02-15T02:55:17;4.20;99.90
44886;DHT22;36669;51.428;21.162;2024-02-15T02:57:44;4.30;99.90
44886;DHT22;36669;51.428;21.162;2024-02-15T03:00:13;4.30;99.90
44886;DHT22;36669;51.428;21.162;2024-02-15T03:02:45;4.30;99.90
44886;DHT22;36669;51.428;21.162;2024-02-15T03:05:14;4.30;99.90
44886;DHT22;36669;51.428;21.162;2024-02-15T03:07:40;4.30;99.90
44886;DHT22;36669;51.428;21.162;2024-02-15T03:10:08;4.30;99.90
44886;DHT22;36669;51.428;21.162;2024-02-15T03:12:40;4.30;99.90
44886;DHT22;36669;51.428;21.162;2024-02-15T03:15:08;4.30;99.90
44886;DHT22;36669;51.428;21.162;2024-02-15T03:17:39;4.30;99.90
44886;DHT22;36669;51.428;21.162;2024-02-15T03:20:12;4.30;99.90
44886;DHT22;36669;51.428;21.162;2024-02-15T03:22:57;4.30;99.90
44886;DHT22;36669;51.428;21.162;2024-02-15T03:25:25;4.30;99.90
44886;DHT22;36669;51.428;21.162;2024-02-15T03:27:55;4.30;99.90
44886;DHT22;36669;51.428;21.162;2024-02-15T03:30:25;4.30;99.90
44886;DHT22;36669;51.428;21.162;2024-02-15T03:32:53;4.30;99.90
44886;DHT22;36669;51.428;21.162;2024-02-15T03:35:21;4.40;99.90
44886;DHT22;36669;51.428;21.162;2024-02-15T03:37:49;4.40;99.90
44886;DHT22;36669;51.428;21.162;2024-02-15T03:40:18;4.30;99.90
44886;DHT22;36669;51.428;21.162;2024-02-15T03:42:46;4.30;99.90
44886;DHT22;36669;51.428;21.162;2024-02-15T03:45:19;4.30;99.90
44886;DHT22;36669;51.428;21.162;2024-02-15T03:48:05;4.40;99.90
44886;DHT22;36669;51.428;21.162;2024-02-15T03:50:32;4.30;99.90
44886;DHT22;36669;51.428;21.162;2024-02-15T03:52:58;4.30;99.90
44886;DHT22;36669;51.428;21.162;2024-02-15T03:55:25;4.40;99.90
44886;DHT22;36669;51.428;21.162;2024-02-15T03:57:50;4.40;99.90
44886;DHT22;36669;51.428;21.162;2024-02-15T04:00:16;4.40;99.90
44886;DHT22;36669;51.428;21.162;2024-02-15T04:02:46;4.30;99.90
44886;DHT22;36669;51.428;21.162;2024-02-15T04:05:14;4.30;99.90
44886;DHT22;36669;51.428;21.162;2024-02-15T04:07:40;4.30;99.90
44886;DHT22;36669;51.428;21.162;2024-02-15T04:10:06;4.40;99.90
44886;DHT22;36669;51.428;21.162;2024-02-15T04:12:32;4.40;99.90
44886;DHT22;36669;51.428;21.162;2024-02-15T04:14:58;4.40;99.90
44886;DHT22;36669;51.428;21.162;2024-02-15T04:17:30;4.40;99.90
44886;DHT22;36669;51.428;21.162;2024-02-15T04:19:58;4.40;99.90
44886;DHT22;36669;51.428;21.162;2024-02-15T04:22:23;4.40;99.90
44886;DHT22;36669;51.428;21.162;2024-02-15T04:24:49;4.40;99.90
44886;DHT22;36669;51.428;21.162;2024-02-15T04:27:16;4.30;99.90
44886;DHT22;36669;51.428;21.162;2024-02-15T04:29:47;4.30;99.90
44886;DHT22;36669;51.428;21.162;2024-02-15T04:32:17;4.40;99.90
44886;DHT22;36669;51.428;21.162;2024-02-15T04:34:47;4.40;99.90
44886;DHT22;36669;51.428;21.162;2024-02-15T04:37:14;4.40;99.90
44886;DHT22;36669;51.428;21.162;2024-02-15T04:39:42;4.40;99.90
44886;DHT22;36669;51.428;21.162;2024-02-15T04:42:08;4.50;99.90
44886;DHT22;36669;51.428;21.162;2024-02-15T04:44:39;4.50;99.90
44886;DHT22;36669;51.428;21.162;2024-02-15T04:47:08;4.50;99.90
44886;DHT22;36669;51.428;21.162;2024-02-15T04:49:34;4.60;99.90
44886;DHT22;36669;51.428;21.162;2024-02-15T04:52:01;4.50;99.90
44886;DHT22;36669;51.428;21.162;2024-02-15T04:54:28;4.50;99.90
44886;DHT22;36669;51.428;21.162;2024-02-15T04:56:55;4.50;99.90
44886;DHT22;36669;51.428;21.162;2024-02-15T04:59:23;4.50;99.90
44886;DHT22;36669;51.428;21.162;2024-02-15T05:01:55;4.50;99.90
44886;DHT22;36669;51.428;21.162;2024-02-15T05:04:28;4.50;99.90
44886;DHT22;36669;51.428;21.162;2024-02-15T05:06:56;4.50;99.90
44886;DHT22;36669;51.428;21.162;2024-02-15T05:09:23;4.50;99.90
44886;DHT22;36669;51.428;21.162;2024-02-15T05:11:51;4.50;99.90
44886;DHT22;36669;51.428;21.162;2024-02-15T05:14:19;4.50;99.90
44886;DHT22;36669;51.428;21.162;2024-02-15T05:16:52;4.50;99.90
44886;DHT22;36669;51.428;21.162;2024-02-15T05:19:20;4.60;99.90
44886;DHT22;36669;51.428;21.162;2024-02-15T05:21:47;4.50;99.90
44886;DHT22;36669;51.428;21.162;2024-02-15T05:24:17;4.50;99.90
44886;DHT22;36669;51.428;21.162;2024-02-15T05:26:47;4.40;99.90
44886;DHT22;36669;51.428;21.162;2024-02-15T05:29:15;4.40;99.90
44886;DHT22;36669;51.428;21.162;2024-02-15T05:31:44;4.40;99.90
44886;DHT22;36669;51.428;21.162;2024-02-15T05:34:14;4.40;99.90
44886;DHT22;36669;51.428;21.162;2024-02-15T05:36:40;4.40;99.90
44886;DHT22;36669;51.428;21.162;2024-02-15T05:39:08;4.50;99.90
44886;DHT22;36669;51.428;21.162;2024-02-15T05:41:39;4.50;99.90
44886;DHT22;36669;51.428;21.162;2024-02-15T05:44:05;4.50;99.90
44886;DHT22;36669;51.428;21.162;2024-02-15T05:46:35;4.50;99.90
44886;DHT22;36669;51.428;21.162;2024-02-15T05:49:08;4.50;99.90
44886;DHT22;36669;51.428;21.162;2024-02-15T05:51:40;4.50;99.90
44886;DHT22;36669;51.428;21.162;2024-02-15T05:54:09;4.40;99.90
44886;DHT22;36669;51.428;21.162;2024-02-15T05:56:38;4.50;99.90
44886;DHT22;36669;51.428;21.162;2024-02-15T05:59:04;4.50;99.90
44886;DHT22;36669;51.428;21.162;2024-02-15T06:01:36;4.40;99.90
44886;DHT22;36669;51.428;21.162;2024-02-15T06:04:03;4.40;99.90
44886;DHT22;36669;51.428;21.162;2024-02-15T06:06:32;4.40;99.90
44886;DHT22;36669;51.428;21.162;2024-02-15T06:09:00;4.40;99.90
44886;DHT22;36669;51.428;21.162;2024-02-15T06:11:28;4.40;99.90
44886;DHT22;36669;51.428;21.162;2024-02-15T06:13:56;4.50;99.90
44886;DHT22;36669;51.428;21.162;2024-02-15T06:16:23;4.50;99.90
44886;DHT22;36669;51.428;21.162;2024-02-15T06:18:48;4.50;99.90
44886;DHT22;36669;51.428;21.162;2024-02-15T06:21:14;4.50;99.90
44886;DHT22;36669;51.428;21.162;2024-02-15T06:23:42;4.50;99.90
44886;DHT22;36669;51.428;21.162;2024-02-15T06:26:09;4.50;99.90
44886;DHT22;36669;51.428;21.162;2024-02-15T06:28:39;4.50;99.90
44886;DHT22;36669;51.428;21.162;2024-02-15T06:31:24;4.60;99.90
44886;DHT22;36669;51.428;21.162;2024-02-15T06:34:10;4.60;99.90
44886;DHT22;36669;51.428;21.162;2024-02-15T06:36:56;4.60;99.90
44886;DHT22;36669;51.428;21.162;2024-02-15T06:39:43;4.70;99.90
44886;DHT22;36669;51.428;21.162;2024-02-15T06:42:17;4.70;99.90
44886;DHT22;36669;51.428;21.162;2024-02-15T06:44:48;4.60;99.90
44886;DHT22;36669;51.428;21.162;2024-02-15T06:47:14;4.60;99.90
44886;DHT22;36669;51.428;21.162;2024-02-15T06:49:45;4.60;99.90
44886;DHT22;36669;51.428;21.162;2024-02-15T06:52:12;4.70;99.90
44886;DHT22;36669;51.428;21.162;2024-02-15T06:54:39;4.70;99.90
44886;DHT22;36669;51.428;21.162;2024-02-15T06:57:06;4.80;99.90
44886;DHT22;36669;51.428;21.162;2024-02-15T06:59:35;4.80;99.90
44886;DHT22;36669;51.428;21.162;2024-02-15T07:02:02;4.90;99.90
44886;DHT22;36669;51.428;21.162;2024-02-15T07:04:31;4.90;99.90
44886;DHT22;36669;51.428;21.162;2024-02-15T07:07:00;4.80;99.90
44886;DHT22;36669;51.428;21.162;2024-02-15T07:09:29;5.00;99.90
44886;DHT22;36669;51.428;21.162;2024-02-15T07:11:57;5.00;99.90
44886;DHT22;36669;51.428;21.162;2024-02-15T07:14:25;5.10;99.90
44886;DHT22;36669;51.428;21.162;2024-02-15T07:16:55;5.10;99.90
44886;DHT22;36669;51.428;21.162;2024-02-15T07:19:34;5.20;99.90
44886;DHT22;36669;51.428;21.162;2024-02-15T07:22:03;5.20;99.90
44886;DHT22;36669;51.428;21.162;2024-02-15T07:24:29;5.30;99.90
44886;DHT22;36669;51.428;21.162;2024-02-15T07:26:56;5.30;99.90
44886;DHT22;36669;51.428;21.162;2024-02-15T07:29:22;5.30;99.90
44886;DHT22;36669;51.428;21.162;2024-02-15T07:31:51;5.40;99.90
44886;DHT22;36669;51.428;21.162;2024-02-15T07:34:18;5.40;99.90
44886;DHT22;36669;51.428;21.162;2024-02-15T07:36:47;5.40;99.90
44886;DHT22;36669;51.428;21.162;2024-02-15T07:39:13;5.40;99.90
44886;DHT22;36669;51.428;21.162;2024-02-15T07:41:49;5.40;99.90
44886;DHT22;36669;51.428;21.162;2024-02-15T07:44:16;5.50;99.90
44886;DHT22;36669;51.428;21.162;2024-02-15T07:46:45;5.50;99.90
44886;DHT22;36669;51.428;21.162;2024-02-15T07:49:17;5.50;99.90
44886;DHT22;36669;51.428;21.162;2024-02-15T07:51:51;5.50;99.90
44886;DHT22;36669;51.428;21.162;2024-02-15T07:54:20;5.40;99.90
44886;DHT22;36669;51.428;21.162;2024-02-15T07:56:49;5.50;99.90
44886;DHT22;36669;51.428;21.162;2024-02-15T07:59:16;5.50;99.90
44886;DHT22;36669;51.428;21.162;2024-02-15T08:01:43;5.60;99.90
44886;DHT22;36669;51.428;21.162;2024-02-15T08:04:13;5.60;99.90
44886;DHT22;36669;51.428;21.162;2024-02-15T08:06:39;5.60;99.90
44886;DHT22;36669;51.428;21.162;2024-02-15T08:09:05;5.70;99.90
44886;DHT22;36669;51.428;21.162;2024-02-15T08:11:32;5.70;99.90
44886;DHT22;36669;51.428;21.162;2024-02-15T08:13:59;5.80;99.90
44886;DHT22;36669;51.428;21.162;2024-02-15T08:16:25;5.70;99.90
44886;DHT22;36669;51.428;21.162;2024-02-15T08:18:54;5.70;99.90
44886;DHT22;36669;51.428;21.162;2024-02-15T08:21:31;5.80;99.90
44886;DHT22;36669;51.428;21.162;2024-02-15T08:24:04;5.70;99.90
44886;DHT22;36669;51.428;21.162;2024-02-15T08:26:39;5.80;99.90
44886;DHT22;36669;51.428;21.162;2024-02-15T08:29:06;5.80;99.90
44886;DHT22;36669;51.428;21.162;2024-02-15T08:31:33;5.90;99.90
44886;DHT22;36669;51.428;21.162;2024-02-15T08:34:04;6.00;99.90
44886;DHT22;36669;51.428;21.162;2024-02-15T08:36:38;6.00;99.90
44886;DHT22;36669;51.428;21.162;2024-02-15T08:39:05;6.00;99.90
44886;DHT22;36669;51.428;21.162;2024-02-15T08:41:31;5.90;99.90
44886;DHT22;36669;51.428;21.162;2024-02-15T08:43:57;6.00;99.90
44886;DHT22;36669;51.428;21.162;2024-02-15T08:46:25;6.00;99.90
44886;DHT22;36669;51.428;21.162;2024-02-15T08:48:54;6.00;99.90
44886;DHT22;36669;51.428;21.162;2024-02-15T08:51:21;6.00;99.90
44886;DHT22;36669;51.428;21.162;2024-02-15T08:53:51;6.00;99.90
44886;DHT22;36669;51.428;21.162;2024-02-15T08:56:16;6.10;99.90
44886;DHT22;36669;51.428;21.162;2024-02-15T08:58:43;6.20;99.90
44886;DHT22;36669;51.428;21.162;2024-02-15T09:01:10;6.10;99.90
44886;DHT22;36669;51.428;21.162;2024-02-15T09:03:39;6.20;99.90
44886;DHT22;36669;51.428;21.162;2024-02-15T09:06:06;6.10;99.90
44886;DHT22;36669;51.428;21.162;2024-02-15T09:08:34;6.10;99.90
44886;DHT22;36669;51.428;21.162;2024-02-15T09:11:00;6.10;99.90
44886;DHT22;36669;51.428;21.162;2024-02-15T09:13:29;6.20;99.90
44886;DHT22;36669;51.428;21.162;2024-02-15T09:15:54;6.30;99.90
44886;DHT22;36669;51.428;21.162;2024-02-15T09:18:21;6.30;99.90
44886;DHT22;36669;51.428;21.162;2024-02-15T09:20:50;6.40;99.90
44886;DHT22;36669;51.428;21.162;2024-02-15T09:23:23;6.60;99.90
44886;DHT22;36669;51.428;21.162;2024-02-15T09:25:51;6.70;99.90
44886;DHT22;36669;51.428;21.162;2024-02-15T09:28:18;6.70;99.90
44886;DHT22;36669;51.428;21.162;2024-02-15T09:30:52;6.90;99.90
44886;DHT22;36669;51.428;21.162;2024-02-15T09:33:21;6.90;99.90
44886;DHT22;36669;51.428;21.162;2024-02-15T09:35:47;7.10;99.90
44886;DHT22;36669;51.428;21.162;2024-02-15T09:38:14;7.20;99.90
44886;DHT22;36669;51.428;21.162;2024-02-15T09:40:42;7.30;99.90
44886;DHT22;36669;51.428;21.162;2024-02-15T09:43:14;7.40;99.90
44886;DHT22;36669;51.428;21.162;2024-02-15T09:45:43;7.70;99.90
44886;DHT22;36669;51.428;21.162;2024-02-15T09:48:10;7.80;99.90
44886;DHT22;36669;51.428;21.162;2024-02-15T09:50:41;8.00;99.90
44886;DHT22;36669;51.428;21.162;2024-02-15T09:53:13;7.90;99.90
44886;DHT22;36669;51.428;21.162;2024-02-15T09:55:40;7.90;99.90
44886;DHT22;36669;51.428;21.162;2024-02-15T09:58:09;7.90;99.90
44886;DHT22;36669;51.428;21.162;2024-02-15T10:00:36;7.90;99.90
44886;DHT22;36669;51.428;21.162;2024-02-15T10:03:05;8.00;99.90
44886;DHT22;36669;51.428;21.162;2024-02-15T10:05:32;8.00;99.90
44886;DHT22;36669;51.428;21.162;2024-02-15T10:07:59;7.90;99.90
44886;DHT22;36669;51.428;21.162;2024-02-15T10:10:28;8.00;99.90
44886;DHT22;36669;51.428;21.162;2024-02-15T10:12:55;8.10;99.90
44886;DHT22;36669;51.428;21.162;2024-02-15T10:15:41;8.20;99.90
44886;DHT22;36669;51.428;21.162;2024-02-15T10:18:08;8.30;99.90
44886;DHT22;36669;51.428;21.162;2024-02-15T10:20:36;8.20;99.90
44886;DHT22;36669;51.428;21.162;2024-02-15T10:23:10;8.30;99.90
44886;DHT22;36669;51.428;21.162;2024-02-15T10:25:38;8.30;99.90
44886;DHT22;36669;51.428;21.162;2024-02-15T10:28:14;8.30;99.90
44886;DHT22;36669;51.428;21.162;2024-02-15T10:30:46;8.30;99.90
44886;DHT22;36669;51.428;21.162;2024-02-15T10:33:42;8.30;99.90
44886;DHT22;36669;51.428;21.162;2024-02-15T10:36:12;8.30;99.90
44886;DHT22;36669;51.428;21.162;2024-02-15T10:38:40;8.20;99.90
44886;DHT22;36669;51.428;21.162;2024-02-15T10:41:08;8.30;99.90
44886;DHT22;36669;51.428;21.162;2024-02-15T10:43:36;8.40;99.90
44886;DHT22;36669;51.428;21.162;2024-02-15T10:46:08;8.40;99.90
44886;DHT22;36669;51.428;21.162;2024-02-15T10:48:36;8.50;99.90
44886;DHT22;36669;51.428;21.162;2024-02-15T10:51:04;8.50;99.90
44886;DHT22;36669;51.428;21.162;2024-02-15T10:53:35;8.50;99.90
44886;DHT22;36669;51.428;21.162;2024-02-15T10:56:44;8.60;99.90
44886;DHT22;36669;51.428;21.162;2024-02-15T10:59:20;8.70;99.90
44886;DHT22;36669;51.428;21.162;2024-02-15T11:01:49;8.80;99.90
44886;DHT22;36669;51.428;21.162;2024-02-15T11:04:21;8.80;99.90
44886;DHT22;36669;51.428;21.162;2024-02-15T11:06:55;8.80;99.90
44886;DHT22;36669;51.428;21.162;2024-02-15T11:09:21;8.80;99.90
44886;DHT22;36669;51.428;21.162;2024-02-15T11:11:49;8.90;99.90
44886;DHT22;36669;51.428;21.162;2024-02-15T11:14:36;8.80;99.90
44886;DHT22;36669;51.428;21.162;2024-02-15T11:17:03;8.90;99.90
44886;DHT22;36669;51.428;21.162;2024-02-15T11:19:41;8.90;99.90
44886;DHT22;36669;51.428;21.162;2024-02-15T11:22:16;9.10;99.90
44886;DHT22;36669;51.428;21.162;2024-02-15T11:24:51;9.20;99.90
44886;DHT22;36669;51.428;21.162;2024-02-15T11:27:30;9.30;99.90
44886;DHT22;36669;51.428;21.162;2024-02-15T11:30:04;9.60;99.90
44886;DHT22;36669;51.428;21.162;2024-02-15T11:35:12;9.80;99.90
44886;DHT22;36669;51.428;21.162;2024-02-15T11:40:24;9.90;99.90
44886;DHT22;36669;51.428;21.162;2024-02-15T11:42:54;10.00;99.90
44886;DHT22;36669;51.428;21.162;2024-02-15T11:45:26;10.00;99.90
44886;DHT22;36669;51.428;21.162;2024-02-15T11:47:59;10.10;99.90
44886;DHT22;36669;51.428;21.162;2024-02-15T11:50:30;10.10;99.90
44886;DHT22;36669;51.428;21.162;2024-02-15T11:53:07;10.10;99.90
44886;DHT22;36669;51.428;21.162;2024-02-15T11:55:44;10.10;99.90
44886;DHT22;36669;51.428;21.162;2024-02-15T11:58:16;10.20;99.90
44886;DHT22;36669;51.428;21.162;2024-02-15T12:00:50;10.30;99.90
44886;DHT22;36669;51.428;21.162;2024-02-15T12:03:34;10.30;99.90
44886;DHT22;36669;51.428;21.162;2024-02-15T12:06:18;10.30;99.90
44886;DHT22;36669;51.428;21.162;2024-02-15T12:09:04;10.20;99.90
44886;DHT22;36669;51.428;21.162;2024-02-15T12:11:57;10.30;99.90
44886;DHT22;36669;51.428;21.162;2024-02-15T12:14:43;10.00;99.90
44886;DHT22;36669;51.428;21.162;2024-02-15T12:17:30;10.20;99.90
44886;DHT22;36669;51.428;21.162;2024-02-15T12:20:15;9.90;99.90
44886;DHT22;36669;51.428;21.162;2024-02-15T12:22:51;9.80;99.90
44886;DHT22;36669;51.428;21.162;2024-02-15T12:25:20;9.80;99.90
44886;DHT22;36669;51.428;21.162;2024-02-15T12:27:59;9.70;99.90
44886;DHT22;36669;51.428;21.162;2024-02-15T12:30:35;9.50;99.90
44886;DHT22;36669;51.428;21.162;2024-02-15T12:33:12;9.60;99.90
44886;DHT22;36669;51.428;21.162;2024-02-15T12:35:37;9.50;99.90
44886;DHT22;36669;51.428;21.162;2024-02-15T12:38:04;9.40;99.90
44886;DHT22;36669;51.428;21.162;2024-02-15T12:40:36;9.50;99.90
44886;DHT22;36669;51.428;21.162;2024-02-15T12:43:06;9.50;99.90
44886;DHT22;36669;51.428;21.162;2024-02-15T12:45:36;9.40;99.90
44886;DHT22;36669;51.428;21.162;2024-02-15T12:48:06;9.40;99.90
44886;DHT22;36669;51.428;21.162;2024-02-15T12:50:32;9.40;99.90
44886;DHT22;36669;51.428;21.162;2024-02-15T12:53:00;9.50;99.90
44886;DHT22;36669;51.428;21.162;2024-02-15T12:55:30;9.50;99.90
44886;DHT22;36669;51.428;21.162;2024-02-15T12:58:12;9.60;99.90
44886;DHT22;36669;51.428;21.162;2024-02-15T13:00:40;9.60;99.90
44886;DHT22;36669;51.428;21.162;2024-02-15T13:03:07;9.50;99.90
44886;DHT22;36669;51.428;21.162;2024-02-15T13:05:38;9.50;99.90
44886;DHT22;36669;51.428;21.162;2024-02-15T13:08:08;9.50;99.90
44886;DHT22;36669;51.428;21.162;2024-02-15T13:10:45;9.30;99.90
44886;DHT22;36669;51.428;21.162;2024-02-15T13:13:12;9.30;99.90
44886;DHT22;36669;51.428;21.162;2024-02-15T13:15:42;9.30;99.90
44886;DHT22;36669;51.428;21.162;2024-02-15T13:18:10;9.40;99.90
44886;DHT22;36669;51.428;21.162;2024-02-15T13:20:48;9.30;99.90
44886;DHT22;36669;51.428;21.162;2024-02-15T13:23:21;9.30;99.90
44886;DHT22;36669;51.428;21.162;2024-02-15T13:25:52;9.20;99.90
44886;DHT22;36669;51.428;21.162;2024-02-15T13:28:21;9.10;99.90
44886;DHT22;36669;51.428;21.162;2024-02-15T13:30:48;9.10;99.90
44886;DHT22;36669;51.428;21.162;2024-02-15T13:33:16;9.20;99.90
44886;DHT22;36669;51.428;21.162;2024-02-15T13:35:42;9.30;99.90
44886;DHT22;36669;51.428;21.162;2024-02-15T13:38:11;9.30;99.90
44886;DHT22;36669;51.428;21.162;2024-02-15T13:40:40;9.30;99.90
44886;DHT22;36669;51.428;21.162;2024-02-15T13:43:07;9.30;99.90
44886;DHT22;36669;51.428;21.162;2024-02-15T13:45:41;9.30;99.90
44886;DHT22;36669;51.428;21.162;2024-02-15T13:48:30;9.20;99.90
44886;DHT22;36669;51.428;21.162;2024-02-15T13:50:56;9.30;99.90
44886;DHT22;36669;51.428;21.162;2024-02-15T13:53:25;9.20;99.90
44886;DHT22;36669;51.428;21.162;2024-02-15T13:55:52;9.10;99.90
44886;DHT22;36669;51.428;21.162;2024-02-15T13:58:19;9.10;99.90
44886;DHT22;36669;51.428;21.162;2024-02-15T14:00:48;9.10;99.90
44886;DHT22;36669;51.428;21.162;2024-02-15T14:03:16;9.00;99.90
44886;DHT22;36669;51.428;21.162;2024-02-15T14:05:45;9.00;99.90
44886;DHT22;36669;51.428;21.162;2024-02-15T14:08:16;8.90;99.90
44886;DHT22;36669;51.428;21.162;2024-02-15T14:10:41;8.90;99.90
44886;DHT22;36669;51.428;21.162;2024-02-15T14:13:08;8.90;99.90
44886;DHT22;36669;51.428;21.162;2024-02-15T14:15:37;8.80;99.90
44886;DHT22;36669;51.428;21.162;2024-02-15T14:18:09;8.80;99.90
44886;DHT22;36669;51.428;21.162;2024-02-15T14:20:36;8.80;99.90
44886;DHT22;36669;51.428;21.162;2024-02-15T14:23:04;8.70;99.90
44886;DHT22;36669;51.428;21.162;2024-02-15T14:25:32;8.80;99.90
44886;DHT22;36669;51.428;21.162;2024-02-15T14:28:00;8.70;99.90
44886;DHT22;36669;51.428;21.162;2024-02-15T14:30:28;8.50;99.90
44886;DHT22;36669;51.428;21.162;2024-02-15T14:33:14;8.60;99.90
44886;DHT22;36669;51.428;21.162;2024-02-15T14:35:41;8.50;99.90
44886;DHT22;36669;51.428;21.162;2024-02-15T14:38:12;8.50;99.90
44886;DHT22;36669;51.428;21.162;2024-02-15T14:43:06;8.40;99.90
44886;DHT22;36669;51.428;21.162;2024-02-15T14:45:37;8.40;99.90
44886;DHT22;36669;51.428;21.162;2024-02-15T14:48:09;8.40;99.90
44886;DHT22;36669;51.428;21.162;2024-02-15T14:50:42;8.40;99.90
44886;DHT22;36669;51.428;21.162;2024-02-15T14:53:09;8.40;99.90
44886;DHT22;36669;51.428;21.162;2024-02-15T14:55:37;8.30;99.90
44886;DHT22;36669;51.428;21.162;2024-02-15T14:58:08;8.30;99.90
44886;DHT22;36669;51.428;21.162;2024-02-15T15:00:37;8.30;99.90
44886;DHT22;36669;51.428;21.162;2024-02-15T15:03:04;8.20;99.90
44886;DHT22;36669;51.428;21.162;2024-02-15T15:05:31;8.20;99.90
44886;DHT22;36669;51.428;21.162;2024-02-15T15:08:17;8.10;99.90
44886;DHT22;36669;51.428;21.162;2024-02-15T15:11:02;8.10;99.90
44886;DHT22;36669;51.428;21.162;2024-02-15T15:13:48;8.00;99.90
44886;DHT22;36669;51.428;21.162;2024-02-15T15:16:16;8.00;99.90
44886;DHT22;36669;51.428;21.162;2024-02-15T15:18:48;7.90;99.90
44886;DHT22;36669;51.428;21.162;2024-02-15T15:21:18;7.90;99.90
44886;DHT22;36669;51.428;21.162;2024-02-15T15:23:46;7.90;99.90
44886;DHT22;36669;51.428;21.162;2024-02-15T15:26:19;7.90;99.90
44886;DHT22;36669;51.428;21.162;2024-02-15T15:28:44;7.90;99.90
44886;DHT22;36669;51.428;21.162;2024-02-15T15:31:10;7.90;99.90
44886;DHT22;36669;51.428;21.162;2024-02-15T15:33:38;7.90;99.90
44886;DHT22;36669;51.428;21.162;2024-02-15T15:36:07;7.90;99.90
44886;DHT22;36669;51.428;21.162;2024-02-15T15:38:34;7.80;99.90
44886;DHT22;36669;51.428;21.162;2024-02-15T15:41:01;7.80;99.90
44886;DHT22;36669;51.428;21.162;2024-02-15T15:43:31;7.80;99.90
44886;DHT22;36669;51.428;21.162;2024-02-15T15:45:57;7.80;99.90
44886;DHT22;36669;51.428;21.162;2024-02-15T15:48:25;7.80;99.90
44886;DHT22;36669;51.428;21.162;2024-02-15T15:50:52;7.80;99.90
44886;DHT22;36669;51.428;21.162;2024-02-15T15:53:19;7.70;99.90
44886;DHT22;36669;51.428;21.162;2024-02-15T15:55:48;7.70;99.90